Pagina principale
METAR-TAF:

METAR-TAF

Aeroporti :

Aeroporto di Shanghai-Pudong

Shanghai-Pudong, Cina

latitudine: 31-07N, longitudine: 121-46E, altezza: 4 m

Osservazione

Il bollettino è stato emesso 39 minuti fa, alle 21:00 UTC
Vento 12 kt da est
Temperature 19°C
Umidità 88%
Pressione 1013 hPa
Visibilità 10 km o più
Nuvoloso ad un'altezza di 500 ft

METAR: ZSPD 202100Z 09006MPS 9999 BKN005 19/17 Q1013 BECMG TL2230 BKN004

Ora: 05:39 (21:39 UTC)

Previsione

Il bollettino è stato emesso 6 ore e 11 minuti fa, alle 15:28 UTC
Previsione valida dal 20 alle 18 UTC al 21 alle 18 UTC
Vento 10 kt da est/nord-est
Visibilità: 6000 m
Nuvoloso ad un'altezza di 600 ft
Evoluzione graduale
dal 21 alle 02 UTC al 21 alle 04 UTC
Vento 10 kt da est
Nuvoloso ad un'altezza di 1100 ft

TAF: ZSPD 201528Z 2018/2118 07005MPS 6000 BKN006 TX23/2106Z TN18/2021Z BECMG 2102/2104 09005MPS BKN011

Osservazioni e previsioni meteorologiche di più di 4000 aeroporti (messaggi METAR e TAF).

Le stazioni disponibili sono rappresentate dai dischi gialli e rossi sulla carta.

Puntare il mouse per vedere il nome della stazione.

Clicca sopra per visualizzare le osservazioni e previsioni meteorologiche.

Per cambiare la mappa : fare clic sui pulsanti verdi con una croce nera per ingrandire, il pulsante verde con un trattino per diminuire, o sulla freccia verde per le mappe adiacenti.


METAR-TAF: